createdAt,value
2019-03-09T00:04:17.738Z,4.42
2019-03-09T00:14:22.651Z,4.32
2019-03-09T00:24:29.194Z,4.23
2019-03-09T00:34:34.126Z,4.01
2019-03-09T00:44:38.995Z,3.89
2019-03-09T00:54:44.220Z,3.96
2019-03-09T01:04:49.128Z,4.03
2019-03-09T01:14:54.017Z,4.11
2019-03-09T01:24:58.884Z,4.25
2019-03-09T01:35:05.594Z,4.25
2019-03-09T01:45:13.094Z,4.24
2019-03-09T01:55:18.029Z,4.30
2019-03-09T02:05:22.923Z,4.35
2019-03-09T02:15:27.811Z,4.43
2019-03-09T02:25:32.697Z,4.53
2019-03-09T02:35:37.563Z,4.55
2019-03-09T02:45:42.459Z,4.66
2019-03-09T02:55:47.423Z,4.70
2019-03-09T03:05:52.344Z,4.71
2019-03-09T03:15:57.214Z,4.77
2019-03-09T03:26:02.084Z,4.77
2019-03-09T03:36:06.976Z,4.87
2019-03-09T03:46:11.922Z,5.03
2019-03-09T03:56:16.882Z,4.91
2019-03-09T04:06:22.120Z,4.84
2019-03-09T04:16:27.043Z,4.76
2019-03-09T04:26:32.019Z,4.78
2019-03-09T04:36:36.891Z,4.84
2019-03-09T04:46:41.781Z,4.90
2019-03-09T04:56:46.729Z,4.78
2019-03-09T05:06:51.598Z,4.76
2019-03-09T05:16:56.473Z,4.85
2019-03-09T05:27:01.345Z,4.79
2019-03-09T05:37:06.237Z,4.84
2019-03-09T05:47:11.105Z,4.98
2019-03-09T05:57:16.030Z,4.93
2019-03-09T06:07:20.876Z,5.37
2019-03-09T06:17:26.902Z,5.55
2019-03-09T06:27:32.510Z,5.92
2019-03-09T06:37:37.372Z,5.67
2019-03-09T06:47:42.279Z,5.59
2019-03-09T06:57:47.142Z,5.72
2019-03-09T07:07:52.129Z,5.71
2019-03-09T07:17:59.107Z,6.50
2019-03-09T07:28:09.339Z,6.50
2019-03-09T07:38:15.348Z,7.04
2019-03-09T07:48:20.216Z,7.95
2019-03-09T07:58:25.132Z,8.85
2019-03-09T08:08:30.000Z,10.32
2019-03-09T08:18:34.916Z,10.16
2019-03-09T08:28:39.791Z,11.54
2019-03-09T08:38:44.681Z,10.90
2019-03-09T08:48:49.560Z,12.10
2019-03-09T08:58:54.535Z,9.94
2019-03-09T09:08:59.450Z,10.20
2019-03-09T09:19:05.884Z,11.36
2019-03-09T09:29:10.774Z,12.56
2019-03-09T09:39:15.653Z,12.05
2019-03-09T09:49:20.526Z,11.33
2019-03-09T09:59:25.429Z,11.83
2019-03-09T10:09:30.331Z,11.84
2019-03-09T10:19:35.209Z,10.70
2019-03-09T10:29:40.083Z,10.87
2019-03-09T10:39:44.968Z,10.91
2019-03-09T10:49:49.866Z,11.70
2019-03-09T10:59:54.760Z,10.87
2019-03-09T11:09:59.650Z,10.54
2019-03-09T11:20:08.018Z,10.10
2019-03-09T11:30:26.499Z,8.86
2019-03-09T11:40:31.483Z,7.88
2019-03-09T11:50:36.376Z,7.50
2019-03-09T12:00:42.863Z,7.21
2019-03-09T12:10:47.724Z,6.81
2019-03-09T12:20:52.599Z,6.50
2019-03-09T12:30:57.516Z,6.50
2019-03-09T12:41:02.398Z,6.54
2019-03-09T12:51:07.586Z,6.97
2019-03-09T13:01:12.609Z,7.18
2019-03-09T13:11:17.592Z,7.57
2019-03-09T13:21:22.473Z,7.89
2019-03-09T13:31:27.373Z,8.05
2019-03-09T13:41:33.085Z,8.65
2019-03-09T13:51:37.989Z,8.74
2019-03-09T14:01:42.918Z,8.96
2019-03-09T14:11:48.822Z,9.44
2019-03-09T14:21:54.693Z,10.29
2019-03-09T14:31:59.560Z,9.80
2019-03-09T14:42:05.092Z,9.74
2019-03-09T14:52:09.983Z,9.61
2019-03-09T15:02:15.015Z,9.72
2019-03-09T15:12:19.998Z,9.68
2019-03-09T15:22:25.059Z,9.96
2019-03-09T15:32:30.037Z,10.09
2019-03-09T15:42:34.947Z,10.16
2019-03-09T15:52:41.101Z,9.92
2019-03-09T16:02:46.042Z,9.81
2019-03-09T16:12:51.087Z,9.77
2019-03-09T16:22:56.067Z,9.68
2019-03-09T16:33:01.045Z,9.63
2019-03-09T16:43:06.129Z,9.54
2019-03-09T16:53:11.043Z,9.52
2019-03-09T17:03:16.073Z,9.63
2019-03-09T17:13:21.064Z,9.45
2019-03-09T17:23:25.987Z,9.45
2019-03-09T17:33:32.053Z,9.40
2019-03-09T17:43:37.017Z,9.01
2019-03-09T17:53:42.047Z,7.47
2019-03-09T18:03:47.202Z,7.00
2019-03-09T18:24:17.605Z,6.20
2019-03-09T18:34:22.700Z,5.88
2019-03-09T18:44:27.678Z,5.76
2019-03-09T18:54:32.854Z,5.70
2019-03-09T19:04:38.422Z,5.82
2019-03-09T19:14:44.467Z,5.81
2019-03-09T19:24:49.450Z,5.99
2019-03-09T19:34:54.372Z,6.14
2019-03-09T19:44:59.272Z,6.19
2019-03-09T19:55:06.373Z,6.18
2019-03-09T20:05:12.815Z,6.11
2019-03-09T20:15:18.803Z,5.93
2019-03-09T20:25:23.968Z,5.83
2019-03-09T20:35:29.088Z,5.79
2019-03-09T20:45:45.492Z,5.74
2019-03-09T20:55:52.123Z,5.75
2019-03-09T21:05:57.011Z,5.82
2019-03-09T21:16:02.423Z,5.96
2019-03-09T21:26:07.652Z,6.19
2019-03-09T21:36:12.538Z,6.20
2019-03-09T21:46:17.437Z,6.26
2019-03-09T21:56:22.459Z,6.29
2019-03-09T22:06:27.538Z,6.42
2019-03-09T22:16:32.421Z,6.68
2019-03-09T22:26:37.408Z,6.49
2019-03-09T22:36:42.288Z,5.85
2019-03-09T22:46:47.259Z,5.71
2019-03-09T22:56:52.149Z,5.64
2019-03-09T23:06:57.039Z,5.81
2019-03-09T23:17:01.959Z,4.85
2019-03-09T23:27:06.827Z,4.66
2019-03-09T23:37:11.702Z,4.42
2019-03-09T23:47:16.676Z,4.41
2019-03-09T23:57:21.516Z,4.62
